sensor_id;sensor_type;location;lat;lon;timestamp;P1;durP1;ratioP1;P2;durP2;ratioP2
12878;SDS011;20617;49.476;10.986;2023-07-30T00:01:26;1.75;;;1.65;;
12878;SDS011;20617;49.476;10.986;2023-07-30T00:05:36;3.20;;;2.10;;
12878;SDS011;20617;49.476;10.986;2023-07-30T00:09:43;2.45;;;2.00;;
12878;SDS011;20617;49.476;10.986;2023-07-30T00:11:49;3.85;;;1.77;;
12878;SDS011;20617;49.476;10.986;2023-07-30T00:16:01;2.00;;;1.80;;
12878;SDS011;20617;49.476;10.986;2023-07-30T00:18:06;2.55;;;2.00;;
12878;SDS011;20617;49.476;10.986;2023-07-30T00:20:11;2.10;;;1.75;;
12878;SDS011;20617;49.476;10.986;2023-07-30T00:22:16;3.13;;;2.20;;
12878;SDS011;20617;49.476;10.986;2023-07-30T00:24:24;2.80;;;1.92;;
12878;SDS011;20617;49.476;10.986;2023-07-30T00:26:29;2.47;;;2.10;;
12878;SDS011;20617;49.476;10.986;2023-07-30T00:28:35;2.45;;;2.25;;
12878;SDS011;20617;49.476;10.986;2023-07-30T00:30:41;3.13;;;2.00;;
12878;SDS011;20617;49.476;10.986;2023-07-30T00:32:49;3.15;;;1.92;;
12878;SDS011;20617;49.476;10.986;2023-07-30T00:34:54;3.38;;;1.85;;
12878;SDS011;20617;49.476;10.986;2023-07-30T00:36:56;3.25;;;2.20;;
12878;SDS011;20617;49.476;10.986;2023-07-30T00:41:07;3.90;;;2.00;;
12878;SDS011;20617;49.476;10.986;2023-07-30T00:43:12;1.95;;;1.75;;
12878;SDS011;20617;49.476;10.986;2023-07-30T00:45:18;3.53;;;2.15;;
12878;SDS011;20617;49.476;10.986;2023-07-30T00:49:31;3.63;;;1.90;;
12878;SDS011;20617;49.476;10.986;2023-07-30T00:51:36;3.22;;;2.05;;
12878;SDS011;20617;49.476;10.986;2023-07-30T00:53:43;3.05;;;2.20;;
12878;SDS011;20617;49.476;10.986;2023-07-30T00:57:53;2.03;;;1.83;;
12878;SDS011;20617;49.476;10.986;2023-07-30T00:59:59;2.30;;;2.10;;
12878;SDS011;20617;49.476;10.986;2023-07-30T01:02:06;4.43;;;2.30;;
12878;SDS011;20617;49.476;10.986;2023-07-30T01:04:16;3.88;;;1.90;;
12878;SDS011;20617;49.476;10.986;2023-07-30T01:06:22;4.13;;;2.67;;
12878;SDS011;20617;49.476;10.986;2023-07-30T01:08:27;2.72;;;2.10;;
12878;SDS011;20617;49.476;10.986;2023-07-30T01:12:39;3.10;;;2.13;;
12878;SDS011;20617;49.476;10.986;2023-07-30T01:14:46;2.33;;;2.10;;
12878;SDS011;20617;49.476;10.986;2023-07-30T01:16:52;3.30;;;2.30;;
12878;SDS011;20617;49.476;10.986;2023-07-30T01:18:55;3.22;;;2.20;;
12878;SDS011;20617;49.476;10.986;2023-07-30T01:21:11;4.00;;;2.58;;
12878;SDS011;20617;49.476;10.986;2023-07-30T01:23:16;2.10;;;1.80;;
12878;SDS011;20617;49.476;10.986;2023-07-30T01:25:21;2.17;;;1.98;;
12878;SDS011;20617;49.476;10.986;2023-07-30T01:27:29;3.95;;;2.25;;
12878;SDS011;20617;49.476;10.986;2023-07-30T01:29:41;3.65;;;2.28;;
12878;SDS011;20617;49.476;10.986;2023-07-30T01:31:47;2.35;;;2.13;;
12878;SDS011;20617;49.476;10.986;2023-07-30T01:33:57;2.80;;;2.25;;
12878;SDS011;20617;49.476;10.986;2023-07-30T01:36:04;3.70;;;2.35;;
12878;SDS011;20617;49.476;10.986;2023-07-30T01:38:16;3.90;;;2.05;;
12878;SDS011;20617;49.476;10.986;2023-07-30T01:40:22;3.85;;;2.58;;
12878;SDS011;20617;49.476;10.986;2023-07-30T01:42:28;3.38;;;2.33;;
12878;SDS011;20617;49.476;10.986;2023-07-30T01:44:30;3.33;;;2.33;;
12878;SDS011;20617;49.476;10.986;2023-07-30T01:48:40;6.05;;;2.45;;
12878;SDS011;20617;49.476;10.986;2023-07-30T01:50:45;3.13;;;2.10;;
12878;SDS011;20617;49.476;10.986;2023-07-30T01:52:50;2.47;;;2.28;;
12878;SDS011;20617;49.476;10.986;2023-07-30T01:57:03;3.08;;;2.17;;
12878;SDS011;20617;49.476;10.986;2023-07-30T01:59:10;2.53;;;2.17;;
12878;SDS011;20617;49.476;10.986;2023-07-30T02:01:15;2.78;;;2.38;;
12878;SDS011;20617;49.476;10.986;2023-07-30T02:03:23;2.63;;;2.10;;
12878;SDS011;20617;49.476;10.986;2023-07-30T02:07:33;2.92;;;2.42;;
12878;SDS011;20617;49.476;10.986;2023-07-30T02:09:38;3.03;;;2.20;;
12878;SDS011;20617;49.476;10.986;2023-07-30T02:11:46;3.80;;;2.45;;
12878;SDS011;20617;49.476;10.986;2023-07-30T02:13:51;4.43;;;2.42;;
12878;SDS011;20617;49.476;10.986;2023-07-30T02:15:56;2.90;;;2.05;;
12878;SDS011;20617;49.476;10.986;2023-07-30T02:18:01;3.38;;;2.55;;
12878;SDS011;20617;49.476;10.986;2023-07-30T02:20:07;3.85;;;2.60;;
12878;SDS011;20617;49.476;10.986;2023-07-30T02:22:14;3.15;;;2.78;;
12878;SDS011;20617;49.476;10.986;2023-07-30T02:24:16;2.47;;;2.15;;
12878;SDS011;20617;49.476;10.986;2023-07-30T02:26:23;2.67;;;2.10;;
12878;SDS011;20617;49.476;10.986;2023-07-30T02:28:30;3.03;;;2.53;;
12878;SDS011;20617;49.476;10.986;2023-07-30T02:30:36;2.83;;;2.30;;
12878;SDS011;20617;49.476;10.986;2023-07-30T02:32:41;3.65;;;2.85;;
12878;SDS011;20617;49.476;10.986;2023-07-30T02:36:51;4.18;;;2.22;;
12878;SDS011;20617;49.476;10.986;2023-07-30T02:38:56;2.75;;;2.45;;
12878;SDS011;20617;49.476;10.986;2023-07-30T02:43:06;3.35;;;2.90;;
12878;SDS011;20617;49.476;10.986;2023-07-30T02:45:14;3.13;;;2.15;;
12878;SDS011;20617;49.476;10.986;2023-07-30T02:47:21;3.95;;;2.75;;
12878;SDS011;20617;49.476;10.986;2023-07-30T02:49:26;2.60;;;2.38;;
12878;SDS011;20617;49.476;10.986;2023-07-30T02:53:36;2.95;;;2.63;;
12878;SDS011;20617;49.476;10.986;2023-07-30T02:57:46;3.22;;;2.92;;
12878;SDS011;20617;49.476;10.986;2023-07-30T02:59:51;4.30;;;3.42;;
12878;SDS011;20617;49.476;10.986;2023-07-30T03:01:59;3.58;;;2.60;;
12878;SDS011;20617;49.476;10.986;2023-07-30T03:04:04;6.20;;;3.33;;
12878;SDS011;20617;49.476;10.986;2023-07-30T03:06:09;3.08;;;2.78;;
12878;SDS011;20617;49.476;10.986;2023-07-30T03:08:12;4.75;;;2.63;;
12878;SDS011;20617;49.476;10.986;2023-07-30T03:10:17;4.20;;;2.47;;
12878;SDS011;20617;49.476;10.986;2023-07-30T03:12:24;3.55;;;2.83;;
12878;SDS011;20617;49.476;10.986;2023-07-30T03:14:29;4.50;;;2.95;;
12878;SDS011;20617;49.476;10.986;2023-07-30T03:16:36;3.60;;;3.13;;
12878;SDS011;20617;49.476;10.986;2023-07-30T03:18:43;3.30;;;2.85;;
12878;SDS011;20617;49.476;10.986;2023-07-30T03:20:49;3.25;;;2.90;;
12878;SDS011;20617;49.476;10.986;2023-07-30T03:22:54;3.65;;;3.28;;
12878;SDS011;20617;49.476;10.986;2023-07-30T03:25:00;3.50;;;2.45;;
12878;SDS011;20617;49.476;10.986;2023-07-30T03:27:10;4.70;;;2.95;;
12878;SDS011;20617;49.476;10.986;2023-07-30T03:29:15;3.10;;;2.80;;
12878;SDS011;20617;49.476;10.986;2023-07-30T03:31:21;3.85;;;2.55;;
12878;SDS011;20617;49.476;10.986;2023-07-30T03:33:27;3.85;;;2.80;;
12878;SDS011;20617;49.476;10.986;2023-07-30T03:35:34;4.05;;;2.72;;
12878;SDS011;20617;49.476;10.986;2023-07-30T03:37:40;2.67;;;2.38;;
12878;SDS011;20617;49.476;10.986;2023-07-30T03:39:45;3.33;;;2.53;;
12878;SDS011;20617;49.476;10.986;2023-07-30T03:41:50;3.70;;;2.83;;
12878;SDS011;20617;49.476;10.986;2023-07-30T03:43:55;3.30;;;2.40;;
12878;SDS011;20617;49.476;10.986;2023-07-30T03:46:00;3.42;;;2.63;;
12878;SDS011;20617;49.476;10.986;2023-07-30T03:48:05;2.60;;;2.40;;
12878;SDS011;20617;49.476;10.986;2023-07-30T03:50:11;3.03;;;2.55;;
12878;SDS011;20617;49.476;10.986;2023-07-30T03:52:22;4.18;;;2.55;;
12878;SDS011;20617;49.476;10.986;2023-07-30T03:54:27;3.40;;;2.70;;
12878;SDS011;20617;49.476;10.986;2023-07-30T03:56:32;2.67;;;2.35;;
12878;SDS011;20617;49.476;10.986;2023-07-30T03:58:37;5.82;;;3.13;;
12878;SDS011;20617;49.476;10.986;2023-07-30T04:00:41;2.75;;;2.40;;
12878;SDS011;20617;49.476;10.986;2023-07-30T04:04:52;3.47;;;2.65;;
12878;SDS011;20617;49.476;10.986;2023-07-30T04:06:57;3.00;;;2.70;;
12878;SDS011;20617;49.476;10.986;2023-07-30T04:09:05;3.30;;;2.70;;
12878;SDS011;20617;49.476;10.986;2023-07-30T04:11:11;3.17;;;2.50;;
12878;SDS011;20617;49.476;10.986;2023-07-30T04:13:16;3.88;;;2.63;;
12878;SDS011;20617;49.476;10.986;2023-07-30T04:15:21;2.42;;;2.22;;
12878;SDS011;20617;49.476;10.986;2023-07-30T04:17:26;2.95;;;2.40;;
12878;SDS011;20617;49.476;10.986;2023-07-30T04:19:31;2.63;;;2.40;;
12878;SDS011;20617;49.476;10.986;2023-07-30T04:21:36;2.50;;;2.30;;
12878;SDS011;20617;49.476;10.986;2023-07-30T04:23:42;2.95;;;2.40;;
12878;SDS011;20617;49.476;10.986;2023-07-30T04:25:51;2.67;;;2.42;;
12878;SDS011;20617;49.476;10.986;2023-07-30T04:27:56;3.40;;;2.40;;
12878;SDS011;20617;49.476;10.986;2023-07-30T04:32:03;3.35;;;2.58;;
12878;SDS011;20617;49.476;10.986;2023-07-30T04:34:12;3.03;;;2.60;;
12878;SDS011;20617;49.476;10.986;2023-07-30T04:38:22;3.40;;;2.70;;
12878;SDS011;20617;49.476;10.986;2023-07-30T04:40:28;4.35;;;2.50;;
12878;SDS011;20617;49.476;10.986;2023-07-30T04:42:36;2.63;;;2.30;;
12878;SDS011;20617;49.476;10.986;2023-07-30T04:44:41;3.63;;;2.30;;
12878;SDS011;20617;49.476;10.986;2023-07-30T04:46:49;5.47;;;3.33;;
12878;SDS011;20617;49.476;10.986;2023-07-30T04:50:59;2.90;;;2.40;;
12878;SDS011;20617;49.476;10.986;2023-07-30T04:53:02;2.80;;;2.28;;
12878;SDS011;20617;49.476;10.986;2023-07-30T04:55:07;3.33;;;2.60;;
12878;SDS011;20617;49.476;10.986;2023-07-30T04:57:12;2.78;;;2.33;;
12878;SDS011;20617;49.476;10.986;2023-07-30T05:01:25;2.47;;;2.22;;
12878;SDS011;20617;49.476;10.986;2023-07-30T05:03:27;3.72;;;2.47;;
12878;SDS011;20617;49.476;10.986;2023-07-30T05:07:37;2.85;;;2.47;;
12878;SDS011;20617;49.476;10.986;2023-07-30T05:09:42;3.00;;;2.53;;
12878;SDS011;20617;49.476;10.986;2023-07-30T05:11:49;4.53;;;2.67;;
12878;SDS011;20617;49.476;10.986;2023-07-30T05:13:54;3.20;;;2.53;;
12878;SDS011;20617;49.476;10.986;2023-07-30T05:16:02;2.58;;;2.30;;
12878;SDS011;20617;49.476;10.986;2023-07-30T05:18:07;3.47;;;3.15;;
12878;SDS011;20617;49.476;10.986;2023-07-30T05:20:12;3.05;;;2.58;;
12878;SDS011;20617;49.476;10.986;2023-07-30T05:22:17;3.33;;;3.00;;
12878;SDS011;20617;49.476;10.986;2023-07-30T05:24:22;2.72;;;2.33;;
12878;SDS011;20617;49.476;10.986;2023-07-30T05:26:27;2.72;;;2.50;;
12878;SDS011;20617;49.476;10.986;2023-07-30T05:28:33;2.65;;;2.15;;
12878;SDS011;20617;49.476;10.986;2023-07-30T05:30:36;2.60;;;2.40;;
12878;SDS011;20617;49.476;10.986;2023-07-30T05:32:43;3.63;;;2.45;;
12878;SDS011;20617;49.476;10.986;2023-07-30T05:34:48;3.67;;;2.92;;
12878;SDS011;20617;49.476;10.986;2023-07-30T05:38:58;3.00;;;2.60;;
12878;SDS011;20617;49.476;10.986;2023-07-30T05:41:03;3.97;;;2.60;;
12878;SDS011;20617;49.476;10.986;2023-07-30T05:43:08;3.90;;;2.85;;
12878;SDS011;20617;49.476;10.986;2023-07-30T05:45:14;4.88;;;2.70;;
12878;SDS011;20617;49.476;10.986;2023-07-30T05:47:22;2.95;;;2.10;;
12878;SDS011;20617;49.476;10.986;2023-07-30T05:49:30;3.67;;;2.40;;
12878;SDS011;20617;49.476;10.986;2023-07-30T05:51:35;3.05;;;2.70;;
12878;SDS011;20617;49.476;10.986;2023-07-30T05:53:40;2.40;;;2.10;;
12878;SDS011;20617;49.476;10.986;2023-07-30T05:55:45;4.00;;;2.30;;
12878;SDS011;20617;49.476;10.986;2023-07-30T05:57:48;2.40;;;2.17;;
12878;SDS011;20617;49.476;10.986;2023-07-30T05:59:55;3.15;;;2.53;;
12878;SDS011;20617;49.476;10.986;2023-07-30T06:02:12;3.45;;;2.55;;
12878;SDS011;20617;49.476;10.986;2023-07-30T06:04:17;3.65;;;2.17;;
12878;SDS011;20617;49.476;10.986;2023-07-30T06:06:24;2.55;;;2.08;;
12878;SDS011;20617;49.476;10.986;2023-07-30T06:08:31;2.65;;;2.10;;
12878;SDS011;20617;49.476;10.986;2023-07-30T06:10:36;2.63;;;2.10;;
12878;SDS011;20617;49.476;10.986;2023-07-30T06:12:42;2.50;;;2.28;;
12878;SDS011;20617;49.476;10.986;2023-07-30T06:16:52;2.42;;;1.85;;
12878;SDS011;20617;49.476;10.986;2023-07-30T06:18:58;4.63;;;1.70;;
12878;SDS011;20617;49.476;10.986;2023-07-30T06:23:10;1.75;;;1.58;;
12878;SDS011;20617;49.476;10.986;2023-07-30T06:25:15;2.22;;;1.80;;
12878;SDS011;20617;49.476;10.986;2023-07-30T06:27:20;3.70;;;2.47;;
12878;SDS011;20617;49.476;10.986;2023-07-30T06:31:30;2.80;;;2.00;;
12878;SDS011;20617;49.476;10.986;2023-07-30T06:33:36;2.30;;;2.10;;
12878;SDS011;20617;49.476;10.986;2023-07-30T06:35:41;2.92;;;2.17;;
12878;SDS011;20617;49.476;10.986;2023-07-30T06:39:54;2.35;;;1.70;;
12878;SDS011;20617;49.476;10.986;2023-07-30T06:41:58;3.05;;;1.63;;
12878;SDS011;20617;49.476;10.986;2023-07-30T06:46:08;2.50;;;1.83;;
12878;SDS011;20617;49.476;10.986;2023-07-30T06:48:16;1.73;;;1.60;;
12878;SDS011;20617;49.476;10.986;2023-07-30T06:52:26;4.03;;;1.90;;
12878;SDS011;20617;49.476;10.986;2023-07-30T06:54:31;1.92;;;1.70;;
12878;SDS011;20617;49.476;10.986;2023-07-30T06:56:43;1.95;;;1.45;;
12878;SDS011;20617;49.476;10.986;2023-07-30T06:58:48;2.03;;;1.55;;
12878;SDS011;20617;49.476;10.986;2023-07-30T07:00:53;2.13;;;1.45;;
12878;SDS011;20617;49.476;10.986;2023-07-30T07:05:03;3.72;;;1.80;;
12878;SDS011;20617;49.476;10.986;2023-07-30T07:07:08;2.58;;;1.70;;
12878;SDS011;20617;49.476;10.986;2023-07-30T07:11:19;2.10;;;1.90;;
12878;SDS011;20617;49.476;10.986;2023-07-30T07:13:32;3.72;;;1.80;;
12878;SDS011;20617;49.476;10.986;2023-07-30T07:15:37;2.92;;;1.60;;
12878;SDS011;20617;49.476;10.986;2023-07-30T07:19:47;2.22;;;1.83;;
12878;SDS011;20617;49.476;10.986;2023-07-30T07:21:52;3.42;;;1.70;;
12878;SDS011;20617;49.476;10.986;2023-07-30T07:23:57;1.85;;;1.50;;
12878;SDS011;20617;49.476;10.986;2023-07-30T07:25:59;1.60;;;1.50;;
12878;SDS011;20617;49.476;10.986;2023-07-30T07:28:04;2.22;;;1.42;;
12878;SDS011;20617;49.476;10.986;2023-07-30T07:30:14;2.10;;;1.55;;
12878;SDS011;20617;49.476;10.986;2023-07-30T07:32:22;1.63;;;1.50;;
12878;SDS011;20617;49.476;10.986;2023-07-30T07:36:33;1.80;;;1.60;;
12878;SDS011;20617;49.476;10.986;2023-07-30T07:38:39;2.05;;;1.70;;
12878;SDS011;20617;49.476;10.986;2023-07-30T07:40:44;3.63;;;1.77;;
12878;SDS011;20617;49.476;10.986;2023-07-30T07:42:52;1.65;;;1.50;;
12878;SDS011;20617;49.476;10.986;2023-07-30T07:44:59;2.88;;;1.63;;
12878;SDS011;20617;49.476;10.986;2023-07-30T07:47:07;1.95;;;1.75;;
12878;SDS011;20617;49.476;10.986;2023-07-30T07:49:12;2.40;;;1.45;;
12878;SDS011;20617;49.476;10.986;2023-07-30T07:53:22;1.75;;;1.60;;
12878;SDS011;20617;49.476;10.986;2023-07-30T07:57:31;2.42;;;2.00;;
12878;SDS011;20617;49.476;10.986;2023-07-30T07:59:38;1.65;;;1.55;;
12878;SDS011;20617;49.476;10.986;2023-07-30T08:01:43;2.42;;;1.52;;
12878;SDS011;20617;49.476;10.986;2023-07-30T08:05:56;1.38;;;1.27;;
12878;SDS011;20617;49.476;10.986;2023-07-30T08:10:06;2.15;;;1.77;;
12878;SDS011;20617;49.476;10.986;2023-07-30T08:12:12;1.63;;;1.40;;
12878;SDS011;20617;49.476;10.986;2023-07-30T08:16:24;2.78;;;1.58;;
12878;SDS011;20617;49.476;10.986;2023-07-30T08:20:37;1.83;;;1.40;;
12878;SDS011;20617;49.476;10.986;2023-07-30T08:22:42;1.48;;;1.27;;
12878;SDS011;20617;49.476;10.986;2023-07-30T08:26:49;1.50;;;1.40;;
12878;SDS011;20617;49.476;10.986;2023-07-30T08:28:56;3.03;;;1.42;;
12878;SDS011;20617;49.476;10.986;2023-07-30T08:33:06;2.47;;;1.27;;
12878;SDS011;20617;49.476;10.986;2023-07-30T08:37:20;1.90;;;1.70;;
12878;SDS011;20617;49.476;10.986;2023-07-30T08:39:25;1.67;;;1.33;;
12878;SDS011;20617;49.476;10.986;2023-07-30T08:43:35;4.85;;;1.77;;
12878;SDS011;20617;49.476;10.986;2023-07-30T08:45:39;3.65;;;1.67;;
12878;SDS011;20617;49.476;10.986;2023-07-30T08:47:49;1.63;;;1.52;;
12878;SDS011;20617;49.476;10.986;2023-07-30T08:49:54;2.78;;;1.40;;
12878;SDS011;20617;49.476;10.986;2023-07-30T08:52:02;3.90;;;1.63;;
12878;SDS011;20617;49.476;10.986;2023-07-30T08:54:10;2.40;;;1.60;;
12878;SDS011;20617;49.476;10.986;2023-07-30T08:56:17;1.58;;;1.35;;
12878;SDS011;20617;49.476;10.986;2023-07-30T08:58:22;2.20;;;1.73;;
12878;SDS011;20617;49.476;10.986;2023-07-30T09:00:30;1.60;;;1.50;;
12878;SDS011;20617;49.476;10.986;2023-07-30T09:02:39;1.70;;;1.60;;
12878;SDS011;20617;49.476;10.986;2023-07-30T09:04:48;3.63;;;1.48;;
12878;SDS011;20617;49.476;10.986;2023-07-30T09:07:00;1.48;;;1.38;;
12878;SDS011;20617;49.476;10.986;2023-07-30T09:09:14;2.30;;;1.50;;
12878;SDS011;20617;49.476;10.986;2023-07-30T09:11:21;1.77;;;1.67;;
12878;SDS011;20617;49.476;10.986;2023-07-30T09:13:37;2.17;;;1.67;;
12878;SDS011;20617;49.476;10.986;2023-07-30T09:15:43;1.88;;;1.35;;
12878;SDS011;20617;49.476;10.986;2023-07-30T09:17:54;1.80;;;1.55;;
12878;SDS011;20617;49.476;10.986;2023-07-30T09:20:01;2.50;;;1.75;;
12878;SDS011;20617;49.476;10.986;2023-07-30T09:22:07;1.40;;;1.30;;
12878;SDS011;20617;49.476;10.986;2023-07-30T09:24:20;2.47;;;1.80;;
12878;SDS011;20617;49.476;10.986;2023-07-30T09:26:26;1.48;;;1.35;;
12878;SDS011;20617;49.476;10.986;2023-07-30T09:28:31;2.03;;;1.63;;
12878;SDS011;20617;49.476;10.986;2023-07-30T09:30:38;1.83;;;1.60;;
12878;SDS011;20617;49.476;10.986;2023-07-30T09:34:47;1.73;;;1.50;;
12878;SDS011;20617;49.476;10.986;2023-07-30T09:36:53;2.03;;;1.60;;
12878;SDS011;20617;49.476;10.986;2023-07-30T09:38:59;1.42;;;1.30;;
12878;SDS011;20617;49.476;10.986;2023-07-30T09:41:08;1.38;;;1.27;;
12878;SDS011;20617;49.476;10.986;2023-07-30T09:43:21;1.15;;;1.05;;
12878;SDS011;20617;49.476;10.986;2023-07-30T09:45:33;2.22;;;1.50;;
12878;SDS011;20617;49.476;10.986;2023-07-30T09:47:40;1.27;;;1.17;;
12878;SDS011;20617;49.476;10.986;2023-07-30T09:49:48;1.42;;;1.33;;
12878;SDS011;20617;49.476;10.986;2023-07-30T09:51:53;1.38;;;1.20;;
12878;SDS011;20617;49.476;10.986;2023-07-30T09:53:56;1.08;;;1.00;;
12878;SDS011;20617;49.476;10.986;2023-07-30T09:56:04;1.48;;;1.33;;
12878;SDS011;20617;49.476;10.986;2023-07-30T09:58:12;1.60;;;1.50;;
12878;SDS011;20617;49.476;10.986;2023-07-30T10:00:18;1.40;;;1.30;;
12878;SDS011;20617;49.476;10.986;2023-07-30T10:02:26;1.75;;;1.40;;
12878;SDS011;20617;49.476;10.986;2023-07-30T10:04:37;3.00;;;1.23;;
12878;SDS011;20617;49.476;10.986;2023-07-30T10:06:52;1.30;;;1.20;;
12878;SDS011;20617;49.476;10.986;2023-07-30T10:09:01;1.35;;;1.25;;
12878;SDS011;20617;49.476;10.986;2023-07-30T10:11:07;1.70;;;1.35;;
12878;SDS011;20617;49.476;10.986;2023-07-30T10:13:16;1.50;;;1.33;;
12878;SDS011;20617;49.476;10.986;2023-07-30T10:15:30;1.90;;;1.42;;
12878;SDS011;20617;49.476;10.986;2023-07-30T10:17:38;1.02;;;1.00;;
12878;SDS011;20617;49.476;10.986;2023-07-30T10:19:46;2.45;;;1.10;;
12878;SDS011;20617;49.476;10.986;2023-07-30T10:21:57;1.38;;;1.20;;
12878;SDS011;20617;49.476;10.986;2023-07-30T10:24:04;2.00;;;1.10;;
12878;SDS011;20617;49.476;10.986;2023-07-30T10:26:11;1.58;;;1.27;;
12878;SDS011;20617;49.476;10.986;2023-07-30T10:30:41;4.57;;;1.45;;
12878;SDS011;20617;49.476;10.986;2023-07-30T10:32:57;2.92;;;1.60;;
12878;SDS011;20617;49.476;10.986;2023-07-30T10:35:04;1.50;;;1.40;;
12878;SDS011;20617;49.476;10.986;2023-07-30T10:37:13;4.50;;;1.77;;
12878;SDS011;20617;49.476;10.986;2023-07-30T10:39:25;3.58;;;1.73;;
12878;SDS011;20617;49.476;10.986;2023-07-30T10:41:31;2.20;;;1.70;;
12878;SDS011;20617;49.476;10.986;2023-07-30T10:43:40;3.60;;;1.80;;
12878;SDS011;20617;49.476;10.986;2023-07-30T10:45:49;1.42;;;1.33;;
12878;SDS011;20617;49.476;10.986;2023-07-30T10:47:54;2.17;;;1.50;;
12878;SDS011;20617;49.476;10.986;2023-07-30T10:50:09;1.92;;;1.30;;
12878;SDS011;20617;49.476;10.986;2023-07-30T10:52:18;1.95;;;1.10;;
12878;SDS011;20617;49.476;10.986;2023-07-30T10:54:23;2.28;;;1.40;;
12878;SDS011;20617;49.476;10.986;2023-07-30T10:58:34;3.42;;;1.70;;
12878;SDS011;20617;49.476;10.986;2023-07-30T11:00:44;2.38;;;1.30;;
12878;SDS011;20617;49.476;10.986;2023-07-30T11:02:55;1.60;;;1.48;;
12878;SDS011;20617;49.476;10.986;2023-07-30T11:05:12;1.50;;;1.35;;
12878;SDS011;20617;49.476;10.986;2023-07-30T11:07:18;2.60;;;1.30;;
12878;SDS011;20617;49.476;10.986;2023-07-30T11:09:24;1.50;;;1.40;;
12878;SDS011;20617;49.476;10.986;2023-07-30T11:11:31;2.05;;;1.58;;
12878;SDS011;20617;49.476;10.986;2023-07-30T11:13:37;1.38;;;1.15;;
12878;SDS011;20617;49.476;10.986;2023-07-30T11:15:40;3.42;;;1.60;;
12878;SDS011;20617;49.476;10.986;2023-07-30T11:17:48;1.65;;;1.30;;
12878;SDS011;20617;49.476;10.986;2023-07-30T11:20:02;1.60;;;1.50;;
12878;SDS011;20617;49.476;10.986;2023-07-30T11:22:08;1.77;;;1.20;;
12878;SDS011;20617;49.476;10.986;2023-07-30T11:24:17;1.80;;;1.40;;
12878;SDS011;20617;49.476;10.986;2023-07-30T11:26:22;1.42;;;1.30;;
12878;SDS011;20617;49.476;10.986;2023-07-30T11:30:31;2.72;;;1.40;;
12878;SDS011;20617;49.476;10.986;2023-07-30T11:32:39;1.35;;;1.20;;
12878;SDS011;20617;49.476;10.986;2023-07-30T11:34:47;2.08;;;1.65;;
12878;SDS011;20617;49.476;10.986;2023-07-30T11:38:57;2.10;;;1.30;;
12878;SDS011;20617;49.476;10.986;2023-07-30T11:41:03;4.10;;;1.58;;
12878;SDS011;20617;49.476;10.986;2023-07-30T11:43:14;1.38;;;1.23;;
12878;SDS011;20617;49.476;10.986;2023-07-30T11:45:22;1.88;;;1.50;;
12878;SDS011;20617;49.476;10.986;2023-07-30T11:47:28;1.52;;;1.42;;
12878;SDS011;20617;49.476;10.986;2023-07-30T11:49:41;1.92;;;1.60;;
12878;SDS011;20617;49.476;10.986;2023-07-30T11:51:46;2.55;;;1.40;;
12878;SDS011;20617;49.476;10.986;2023-07-30T11:53:52;2.63;;;1.52;;
12878;SDS011;20617;49.476;10.986;2023-07-30T11:55:58;2.78;;;1.70;;
12878;SDS011;20617;49.476;10.986;2023-07-30T11:58:02;2.58;;;1.77;;
12878;SDS011;20617;49.476;10.986;2023-07-30T12:00:08;2.67;;;1.65;;
12878;SDS011;20617;49.476;10.986;2023-07-30T12:02:17;3.72;;;1.90;;
12878;SDS011;20617;49.476;10.986;2023-07-30T12:04:24;1.90;;;1.67;;
12878;SDS011;20617;49.476;10.986;2023-07-30T12:06:41;1.95;;;1.55;;
12878;SDS011;20617;49.476;10.986;2023-07-30T12:08:48;2.15;;;1.60;;
12878;SDS011;20617;49.476;10.986;2023-07-30T12:10:53;2.30;;;1.20;;
12878;SDS011;20617;49.476;10.986;2023-07-30T12:12:58;1.80;;;1.63;;
12878;SDS011;20617;49.476;10.986;2023-07-30T12:15:09;2.35;;;1.90;;
12878;SDS011;20617;49.476;10.986;2023-07-30T12:17:16;2.20;;;1.85;;
12878;SDS011;20617;49.476;10.986;2023-07-30T12:21:26;2.55;;;1.63;;
12878;SDS011;20617;49.476;10.986;2023-07-30T12:23:31;2.25;;;1.70;;
12878;SDS011;20617;49.476;10.986;2023-07-30T12:25:36;2.40;;;1.90;;
12878;SDS011;20617;49.476;10.986;2023-07-30T12:27:43;1.75;;;1.60;;
12878;SDS011;20617;49.476;10.986;2023-07-30T12:31:52;2.38;;;1.77;;
12878;SDS011;20617;49.476;10.986;2023-07-30T12:33:58;1.98;;;1.40;;
12878;SDS011;20617;49.476;10.986;2023-07-30T12:38:08;3.13;;;2.22;;
12878;SDS011;20617;49.476;10.986;2023-07-30T12:40:19;2.00;;;1.70;;
12878;SDS011;20617;49.476;10.986;2023-07-30T12:42:25;3.92;;;1.98;;
12878;SDS011;20617;49.476;10.986;2023-07-30T12:44:31;1.85;;;1.63;;
12878;SDS011;20617;49.476;10.986;2023-07-30T12:48:41;2.92;;;1.80;;
12878;SDS011;20617;49.476;10.986;2023-07-30T12:52:51;2.53;;;1.55;;
12878;SDS011;20617;49.476;10.986;2023-07-30T12:54:53;3.17;;;1.83;;
12878;SDS011;20617;49.476;10.986;2023-07-30T12:57:01;3.30;;;2.15;;
12878;SDS011;20617;49.476;10.986;2023-07-30T12:59:07;1.75;;;1.65;;
12878;SDS011;20617;49.476;10.986;2023-07-30T13:01:12;3.38;;;1.90;;
12878;SDS011;20617;49.476;10.986;2023-07-30T13:03:17;2.05;;;1.70;;
12878;SDS011;20617;49.476;10.986;2023-07-30T13:05:22;2.08;;;1.77;;
12878;SDS011;20617;49.476;10.986;2023-07-30T13:07:31;2.42;;;1.92;;
12878;SDS011;20617;49.476;10.986;2023-07-30T13:09:36;2.88;;;1.50;;
12878;SDS011;20617;49.476;10.986;2023-07-30T13:11:38;2.40;;;1.85;;
12878;SDS011;20617;49.476;10.986;2023-07-30T13:15:51;2.22;;;1.60;;
12878;SDS011;20617;49.476;10.986;2023-07-30T13:17:59;2.38;;;1.60;;
12878;SDS011;20617;49.476;10.986;2023-07-30T13:20:03;2.00;;;1.80;;
12878;SDS011;20617;49.476;10.986;2023-07-30T13:22:13;2.70;;;1.88;;
12878;SDS011;20617;49.476;10.986;2023-07-30T13:24:23;2.53;;;1.60;;
12878;SDS011;20617;49.476;10.986;2023-07-30T13:26:31;2.95;;;1.50;;
12878;SDS011;20617;49.476;10.986;2023-07-30T13:28:37;4.00;;;1.80;;
12878;SDS011;20617;49.476;10.986;2023-07-30T13:32:50;2.00;;;1.67;;
12878;SDS011;20617;49.476;10.986;2023-07-30T13:36:59;3.53;;;1.40;;
12878;SDS011;20617;49.476;10.986;2023-07-30T13:39:02;2.38;;;1.60;;
12878;SDS011;20617;49.476;10.986;2023-07-30T13:41:07;3.13;;;1.38;;
12878;SDS011;20617;49.476;10.986;2023-07-30T13:43:10;3.97;;;2.00;;
12878;SDS011;20617;49.476;10.986;2023-07-30T13:47:26;8.73;;;2.25;;
12878;SDS011;20617;49.476;10.986;2023-07-30T13:49:31;3.25;;;1.65;;
12878;SDS011;20617;49.476;10.986;2023-07-30T13:51:36;3.42;;;1.42;;
12878;SDS011;20617;49.476;10.986;2023-07-30T13:53:39;5.80;;;1.52;;
12878;SDS011;20617;49.476;10.986;2023-07-30T13:55:47;3.00;;;1.85;;
12878;SDS011;20617;49.476;10.986;2023-07-30T13:57:53;6.50;;;1.80;;
12878;SDS011;20617;49.476;10.986;2023-07-30T13:59:57;6.40;;;2.17;;
12878;SDS011;20617;49.476;10.986;2023-07-30T14:02:05;4.43;;;2.03;;
12878;SDS011;20617;49.476;10.986;2023-07-30T14:04:13;4.15;;;2.00;;
12878;SDS011;20617;49.476;10.986;2023-07-30T14:06:18;3.75;;;1.70;;
12878;SDS011;20617;49.476;10.986;2023-07-30T14:08:23;2.53;;;1.67;;
12878;SDS011;20617;49.476;10.986;2023-07-30T14:12:33;4.03;;;1.60;;
12878;SDS011;20617;49.476;10.986;2023-07-30T14:16:43;1.83;;;1.30;;
12878;SDS011;20617;49.476;10.986;2023-07-30T14:18:48;1.60;;;1.30;;
12878;SDS011;20617;49.476;10.986;2023-07-30T14:20:56;3.65;;;1.60;;
12878;SDS011;20617;49.476;10.986;2023-07-30T14:23:01;3.47;;;1.90;;
12878;SDS011;20617;49.476;10.986;2023-07-30T14:25:07;2.85;;;1.40;;
12878;SDS011;20617;49.476;10.986;2023-07-30T14:27:12;3.35;;;1.70;;
12878;SDS011;20617;49.476;10.986;2023-07-30T14:29:18;2.22;;;1.60;;